Date,TemperatureHighF,TemperatureAvgF,TemperatureLowF,DewpointHighF,DewpointAvgF,DewpointLowF,HumidityHigh,HumidityAvg,HumidityLow,PressureMaxIn,PressureMinIn,WindSpeedMaxMPH,WindSpeedAvgMPH,GustSpeedMaxMPH,PrecipitationSumIn
2014-1-1,27,19,15,-100,-100,-100,0,0,100,0.00,40.00,0,-999,0,0.01
2014-1-2,32,26,18,-100,-100,-100,0,0,100,0.00,40.00,0,-999,0,0.02
2014-1-3,33,32,30,-100,-100,-100,0,0,100,0.00,40.00,0,-999,0,0.00
2014-1-4,16,11,5,-100,-100,-100,0,0,100,0.00,40.00,0,-999,0,0.00
2014-1-5,-1,-2,-4,-100,-100,-100,0,0,100,0.00,40.00,0,-999,0,0.02
2014-1-6,26,11,3,-100,-100,-100,0,0,100,0.00,40.00,0,-999,0,0.00
2014-1-7,36,27,19,-100,-100,-100,0,0,100,0.00,40.00,0,-999,0,0.02
2014-1-8,27,22,19,-100,-100,-100,0,0,100,0.00,40.00,0,-999,0,0.02
2014-1-9,21,21,21,-100,-100,-100,0,0,100,0.00,40.00,0,-999,0,0.00
2014-1-10,16,11,8,-100,-100,-100,0,0,100,0.00,40.00,0,-999,0,0.00
2014-1-11,38,31,18,-100,-100,-100,0,0,100,0.00,40.00,0,-999,0,0.01
2014-1-12,33,21,9,-100,-100,-100,0,0,100,0.00,40.00,0,-999,0,0.00
2014-1-13,23,18,11,-100,-100,-100,0,0,100,0.00,40.00,0,-999,0,0.01
2014-1-14,20,19,17,-100,-100,-100,0,0,100,0.00,40.00,0,-999,0,0.00
2014-1-15,32,29,25,-100,-100,-100,0,0,100,0.00,40.00,0,-999,0,0.01
2014-1-16,27,24,19,-100,-100,-100,0,0,100,0.00,40.00,0,-999,0,0.00
2014-1-17,32,26,21,-100,-100,-100,0,0,100,0.00,40.00,0,-999,0,0.00
2014-1-18,35,31,25,-100,-100,-100,0,0,100,0.00,40.00,0,-999,0,0.00
2014-1-19,39,34,29,-100,-100,-100,0,0,100,0.00,40.00,0,-999,0,0.00
2014-1-20,31,28,25,-100,-100,-100,0,0,100,0.00,40.00,0,-999,0,0.00
2014-1-21,37,33,27,-100,-100,-100,0,0,100,0.00,40.00,0,-999,0,0.00
2014-1-22,25,20,14,-100,-100,-100,0,0,100,0.00,40.00,0,-999,0,0.00
2014-1-25,38,35,31,-100,-100,-100,0,0,100,0.00,40.00,0,-999,0,0.00
2014-1-26,34,25,12,-100,-100,-100,0,0,100,0.00,40.00,0,-999,0,0.00
2014-1-27,5,5,5,-100,-100,-100,0,0,100,0.00,40.00,0,-999,0,0.00
2014-1-28,19,19,19,-100,-100,-100,0,0,100,0.00,40.00,0,-999,0,0.00
2014-1-29,35,29,23,-100,-100,-100,0,0,100,0.00,40.00,0,-999,0,0.00
2014-1-30,25,23,20,-100,-100,-100,0,0,100,0.00,40.00,0,-999,0,0.01
2014-1-31,22,16,10,-100,-100,-100,0,0,100,0.00,40.00,0,-999,0,0.01
2014-2-1,19,7,-1,-100,-100,-100,0,0,100,0.00,40.00,0,-999,0,0.00
2014-2-2,22,7,-2,-100,-100,-100,0,0,100,0.00,40.00,0,-999,0,0.01
2014-2-3,24,15,8,-100,-100,-100,0,0,100,0.00,40.00,0,-999,0,0.00
2014-2-4,11,3,-6,-100,-100,-100,0,0,100,0.00,40.00,0,-999,0,0.01
2014-2-5,7,-3,-12,-100,-100,-100,0,0,100,0.00,40.00,0,-999,0,0.01
2014-2-6,17,13,6,-100,-100,-100,0,0,100,0.00,40.00,0,-999,0,0.00
2014-2-7,23,19,14,-100,-100,-100,0,0,100,0.00,40.00,0,-999,0,0.01
2014-2-12,27,19,12,-100,-100,-100,0,0,100,0.00,40.00,0,-999,0,0.00
2014-2-13,30,27,26,-100,-100,-100,0,0,100,0.00,40.00,0,-999,0,0.00
2014-2-14,33,26,20,-100,-100,-100,0,0,100,0.00,40.00,0,-999,0,0.01
2014-2-15,36,35,34,-100,-100,-100,0,0,100,0.00,40.00,0,-999,0,0.00
2014-2-16,41,34,22,-100,-100,-100,0,0,100,0.00,40.00,0,-999,0,0.00
2014-2-17,37,24,16,-100,-100,-100,0,0,100,0.00,40.00,0,-999,0,0.01
2014-2-18,35,32,30,-100,-100,-100,0,0,100,0.00,40.00,0,-999,0,0.00
2014-2-19,35,33,30,-100,-100,-100,0,0,100,0.00,40.00,0,-999,0,0.00
2014-2-20,14,8,3,-100,-100,-100,0,0,100,0.00,40.00,0,-999,0,0.04
2014-2-21,26,19,12,-100,-100,-100,0,0,100,0.00,40.00,0,-999,0,0.02
2014-2-22,25,20,16,-100,-100,-100,0,0,100,0.00,40.00,0,-999,0,0.00
2014-2-23,34,26,19,-100,-100,-100,0,0,100,0.00,40.00,0,-999,0,0.01
2014-2-24,29,28,28,-100,-100,-100,0,0,100,0.00,40.00,0,-999,0,0.00
2014-2-25,39,33,29,-100,-100,-100,0,0,100,0.00,40.00,0,-999,0,0.00
2014-2-26,35,27,10,-100,-100,-100,0,0,100,0.00,40.00,0,-999,0,0.00
2014-2-27,37,32,26,-100,-100,-100,0,0,100,0.00,40.00,0,-999,0,0.00
2014-2-28,34,30,25,-100,-100,-100,0,0,100,0.00,40.00,0,-999,0,0.00
2014-3-1,34,31,25,-100,-100,-100,0,0,100,0.00,40.00,0,-999,0,0.01
2014-3-2,28,22,18,-100,-100,-100,0,0,100,0.00,40.00,0,-999,0,0.02
2014-3-3,28,26,23,-100,-100,-100,0,0,100,0.00,40.00,0,-999,0,0.01
2014-3-4,37,28,23,-100,-100,-100,0,0,100,0.00,40.00,0,-999,0,0.00
2014-3-5,33,25,18,-100,-100,-100,0,0,100,0.00,40.00,0,-999,0,0.02
2014-3-6,47,35,29,-100,-100,-100,0,0,100,0.00,40.00,0,-999,0,0.01
2014-3-7,30,25,19,-100,-100,-100,0,0,100,0.00,40.00,0,-999,0,0.00
2014-3-8,29,20,15,-100,-100,-100,0,0,100,0.00,40.00,0,-999,0,0.01
2014-3-9,46,35,18,-100,-100,-100,0,0,100,0.00,40.00,0,-999,0,0.03
2014-3-10,49,40,32,-100,-100,-100,0,0,100,0.00,40.00,0,-999,0,0.02
2014-3-11,35,19,10,-100,-100,-100,0,0,100,0.00,40.00,0,-999,0,0.00
2014-3-12,34,13,4,-100,-100,-100,0,0,100,0.00,40.00,0,-999,0,0.01
2014-3-13,33,26,21,-100,-100,-100,0,0,100,0.00,40.00,0,-999,0,0.01
2014-3-14,40,32,23,-100,-100,-100,0,0,100,0.00,40.00,0,-999,0,0.00
2014-3-15,29,23,16,-100,-100,-100,0,0,100,0.00,40.00,0,-999,0,0.01
2014-3-16,40,31,20,-100,-100,-100,0,0,100,0.00,40.00,0,-999,0,0.00
2014-3-17,40,34,29,-100,-100,-100,0,0,100,0.00,40.00,0,-999,0,0.00
2014-3-18,20,15,11,-100,-100,-100,0,0,100,0.00,40.00,0,-999,0,0.02
2014-3-19,33,19,9,-100,-100,-100,0,0,100,0.00,40.00,0,-999,0,0.01
2014-3-20,44,33,25,-100,-100,-100,0,0,100,0.00,40.00,0,-999,0,0.00
2014-3-21,31,26,20,-100,-100,-100,0,0,100,0.00,40.00,0,-999,0,0.00
2014-3-22,26,21,14,-100,-100,-100,0,0,100,0.00,40.00,0,-999,0,0.00
2014-3-23,38,28,20,-100,-100,-100,0,0,100,0.00,40.00,0,-999,0,0.01
2014-3-26,41,34,26,-100,-100,-100,0,0,100,0.00,40.00,0,-999,0,0.00
2014-3-27,32,25,20,-100,-100,-100,0,0,100,0.00,40.00,0,-999,0,0.00
2014-3-28,27,20,15,-100,-100,-100,0,0,100,0.00,40.00,0,-999,0,0.01
2014-3-29,43,36,24,-100,-100,-100,0,0,100,0.00,40.00,0,-999,0,0.01
2014-3-30,44,37,31,-100,-100,-100,0,0,100,0.00,40.00,0,-999,0,0.00
2014-3-31,33,25,18,-100,-100,-100,0,0,100,0.00,40.00,0,-999,0,0.00
2014-4-1,38,32,20,-100,-100,-100,0,0,100,0.00,40.00,0,-999,0,0.00
2014-4-2,35,28,24,-100,-100,-100,0,0,100,0.00,40.00,0,-999,0,0.00
2014-4-3,26,20,15,-100,-100,-100,0,0,100,0.00,40.00,0,-999,0,0.02
2014-4-4,33,21,8,-100,-100,-100,0,0,100,0.00,40.00,0,-999,0,0.03
2014-4-5,32,24,14,-100,-100,-100,0,0,100,0.00,40.00,0,-999,0,0.01
2014-4-6,35,28,22,-100,-100,-100,0,0,100,0.00,40.00,0,-999,0,0.01
2014-4-7,29,23,19,-100,-100,-100,0,0,100,0.00,40.00,0,-999,0,0.01
2014-4-8,46,38,28,-100,-100,-100,0,0,100,0.00,40.00,0,-999,0,0.01
2014-4-9,50,43,38,-100,-100,-100,0,0,100,0.00,40.00,0,-999,0,0.00
2014-4-10,49,40,32,-100,-100,-100,0,0,100,0.00,40.00,0,-999,0,0.00
2014-4-11,53,40,27,-100,-100,-100,0,0,100,0.00,40.00,0,-999,0,0.09
2014-4-12,49,42,33,-100,-100,-100,0,0,100,0.00,40.00,0,-999,0,1.60
2014-4-13,32,25,16,-100,-100,-100,0,0,100,0.00,40.00,0,-999,0,0.00
2014-4-14,26,11,3,-100,-100,-100,0,0,100,0.00,40.00,0,-999,0,0.02
2014-4-15,41,28,19,-100,-100,-100,0,0,100,0.00,40.00,0,-999,0,0.00
2014-4-16,38,30,24,-100,-100,-100,0,0,100,0.00,40.00,0,-999,0,0.00
2014-4-17,44,36,17,-100,-100,-100,0,0,100,0.00,40.00,0,-999,0,0.02
2014-4-18,55,44,37,-100,-100,-100,0,0,100,0.00,40.00,0,-999,0,0.01
2014-4-19,45,38,35,-100,-100,-100,0,0,100,0.00,40.00,0,-999,0,0.02
2014-4-20,47,38,31,-100,-100,-100,0,0,100,0.00,40.00,0,-999,0,0.02
2014-4-21,48,38,28,-100,-100,-100,0,0,100,0.00,40.00,0,-999,0,0.00
2014-4-22,55,45,34,-100,-100,-100,0,0,100,0.00,40.00,0,-999,0,0.00
2014-4-23,48,41,30,-100,-100,-100,0,0,100,0.00,40.00,0,-999,0,0.00
2014-4-24,45,35,22,-100,-100,-100,0,0,100,0.00,40.00,0,-999,0,0.00
2014-4-25,52,42,28,-100,-100,-100,0,0,100,0.00,40.00,0,-999,0,0.00
2014-4-26,52,42,32,-100,-100,-100,0,0,100,0.00,40.00,0,-999,0,0.00
2014-4-27,32,27,23,-100,-100,-100,0,0,100,0.00,40.00,0,-999,0,0.00
2014-4-28,29,22,19,-100,-100,-100,0,0,100,0.00,40.00,0,-999,0,0.01
2014-4-29,30,23,19,-100,-100,-100,0,0,100,0.00,40.00,0,-999,0,0.01
2014-4-30,33,24,19,-100,-100,-100,0,0,100,0.00,40.00,0,-999,0,0.01
2014-5-1,38,28,19,-100,-100,-100,0,0,100,0.00,40.00,0,-999,0,0.01
2014-5-2,50,42,32,-100,-100,-100,0,0,100,0.00,40.00,0,-999,0,0.00
2014-5-3,55,46,38,-100,-100,-100,0,0,100,0.00,40.00,0,-999,0,0.00
2014-5-4,57,50,45,-100,-100,-100,0,0,100,0.00,40.00,0,-999,0,0.00
2014-5-5,55,50,44,-100,-100,-100,0,0,100,0.00,40.00,0,-999,0,0.00
2014-5-6,54,45,40,-100,-100,-100,0,0,100,0.00,40.00,0,-999,0,0.00
2014-5-13,26,24,22,-100,-100,-100,0,0,100,0.00,40.00,0,-999,0,0.00
2014-5-14,33,26,18,-100,-100,-100,0,0,100,0.00,40.00,0,-999,0,0.02
2014-5-15,40,33,27,-100,-100,-100,0,0,100,0.00,40.00,0,-999,0,0.01
2014-5-16,47,39,35,-100,-100,-100,0,0,100,0.00,40.00,0,-999,0,0.01
2014-5-17,50,42,33,-100,-100,-100,0,0,100,0.00,40.00,0,-999,0,0.00
2014-5-18,59,50,33,-100,-100,-100,0,0,100,0.00,40.00,0,-999,0,0.00
2014-5-19,58,50,39,-100,-100,-100,0,0,100,0.00,40.00,0,-999,0,0.00
2014-5-20,51,43,32,-100,-100,-100,0,0,100,0.00,40.00,0,-999,0,0.00
2014-5-21,50,44,35,-100,-100,-100,0,0,100,0.00,40.00,0,-999,0,0.01
2014-5-22,53,40,34,-100,-100,-100,0,0,100,0.00,40.00,0,-999,0,0.01
2014-5-23,47,40,33,-100,-100,-100,0,0,100,0.00,40.00,0,-999,0,0.01
2014-5-24,49,39,34,-100,-100,-100,0,0,100,0.00,40.00,0,-999,0,0.02
2014-5-25,42,37,34,-100,-100,-100,0,0,100,0.00,40.00,0,-999,0,0.03
2014-5-26,50,40,30,-100,-100,-100,0,0,100,0.00,40.00,0,-999,0,0.01
2014-5-27,58,48,38,-100,-100,-100,0,0,100,0.00,40.00,0,-999,0,0.00
2014-5-28,63,50,36,-100,-100,-100,0,0,100,0.00,40.00,0,-999,0,0.00
2014-5-29,63,52,46,-100,-100,-100,0,0,100,0.00,40.00,0,-999,0,0.00
2014-5-30,50,43,35,-100,-100,-100,0,0,100,0.00,40.00,0,-999,0,0.01
2014-5-31,59,49,34,-100,-100,-100,0,0,100,0.00,40.00,0,-999,0,0.01
2014-6-1,59,50,38,-100,-100,-100,0,0,100,0.00,40.00,0,-999,0,0.00
2014-6-2,63,50,35,-100,-100,-100,0,0,100,0.00,40.00,0,-999,0,0.00
2014-6-3,63,54,41,-100,-100,-100,0,0,100,0.00,40.00,0,-999,0,0.00
2014-6-4,60,52,36,-100,-100,-100,0,0,100,0.00,40.00,0,-999,0,0.00
2014-6-5,57,50,42,-100,-100,-100,0,0,100,0.00,40.00,0,-999,0,0.00
2014-6-6,59,50,38,-100,-100,-100,0,0,100,0.00,40.00,0,-999,0,0.00
2014-6-7,55,47,38,-100,-100,-100,0,0,100,0.00,40.00,0,-999,0,0.00
2014-6-8,52,42,34,-100,-100,-100,0,0,100,0.00,40.00,0,-999,0,0.00
2014-6-9,53,41,30,-100,-100,-100,0,0,100,0.00,40.00,0,-999,0,0.00
2014-6-10,60,50,37,-100,-100,-100,0,0,100,0.00,40.00,0,-999,0,0.01
2014-6-11,62,52,40,-100,-100,-100,0,0,100,0.00,40.00,0,-999,0,0.01
2014-6-12,57,46,35,-100,-100,-100,0,0,100,0.00,40.00,0,-999,0,0.00
2014-6-13,66,56,45,-100,-100,-100,0,0,100,0.00,40.00,0,-999,0,0.00
2014-6-14,60,50,42,-100,-100,-100,0,0,100,0.00,40.00,0,-999,0,0.00
2014-6-15,56,44,30,-100,-100,-100,0,0,100,0.00,40.00,0,-999,0,0.00
2014-6-16,63,52,38,-100,-100,-100,0,0,100,0.00,40.00,0,-999,0,0.00
2014-6-17,63,53,43,-100,-100,-100,0,0,100,0.00,40.00,0,-999,0,0.00
2014-6-18,59,48,38,-100,-100,-100,0,0,100,0.00,40.00,0,-999,0,0.01
2014-6-19,59,45,34,-100,-100,-100,0,0,100,0.00,40.00,0,-999,0,0.01
2014-6-20,64,50,33,-100,-100,-100,0,0,100,0.00,40.00,0,-999,0,0.00
2014-6-21,62,50,39,-100,-100,-100,0,0,100,0.00,40.00,0,-999,0,0.00
2014-6-22,57,48,40,-100,-100,-100,0,0,100,0.00,40.00,0,-999,0,0.00
2014-6-23,62,46,36,-100,-100,-100,0,0,100,0.00,40.00,0,-999,0,0.01
2014-6-24,62,48,38,-100,-100,-100,0,0,100,0.00,40.00,0,-999,0,0.00
2014-6-25,62,53,42,-100,-100,-100,0,0,100,0.00,40.00,0,-999,0,0.00
2014-6-26,68,55,43,-100,-100,-100,0,0,100,0.00,40.00,0,-999,0,0.00
2014-6-27,57,51,43,-100,-100,-100,0,0,100,0.00,40.00,0,-999,0,0.00
2014-6-28,60,48,37,-100,-100,-100,0,0,100,0.00,40.00,0,-999,0,0.01
2014-6-29,70,59,45,-100,-100,-100,0,0,100,0.00,40.00,0,-999,0,0.01
2014-6-30,69,60,54,-100,-100,-100,0,0,100,0.00,40.00,0,-999,0,0.00
2014-7-1,53,45,38,-100,-100,-100,0,0,100,0.00,40.00,0,-999,0,0.00
2014-7-2,60,51,40,-100,-100,-100,0,0,100,0.00,40.00,0,-999,0,0.00
2014-7-3,66,51,43,-100,-100,-100,0,0,100,0.00,40.00,0,-999,0,0.00
2014-7-4,68,54,43,-100,-100,-100,0,0,100,0.00,40.00,0,-999,0,0.01
2014-7-5,65,52,42,-100,-100,-100,0,0,100,0.00,40.00,0,-999,0,0.01
2014-7-6,66,56,44,-100,-100,-100,0,0,100,0.00,40.00,0,-999,0,0.00
2014-7-7,72,62,53,-100,-100,-100,0,0,100,0.00,40.00,0,-999,0,0.00
2014-7-8,59,52,47,-100,-100,-100,0,0,100,0.00,40.00,0,-999,0,0.00
2014-7-9,65,55,45,-100,-100,-100,0,0,100,0.00,40.00,0,-999,0,0.00
2014-7-10,65,57,47,-100,0,200,0,0,100,0.00,40.00,0,0,0,0.00
2014-7-11,65,54,47,-100,0,200,0,0,100,0.00,40.00,0,0,0,0.01
2014-7-12,64,52,45,-100,0,200,0,0,100,0.00,40.00,0,0,0,0.01
2014-7-13,59,48,42,-100,0,200,0,0,100,0.00,40.00,0,0,0,0.01
2014-7-14,61,54,44,-100,0,200,0,0,100,0.00,40.00,0,0,0,0.00
2014-7-15,66,52,44,-100,0,200,0,0,100,0.00,40.00,0,0,0,0.00